Main page
METAR-TAF:

METAR-TAF

Airports :

Deauville, France

Deauville – Normandie Airport

latitude: 49-21-55N, longitude: 000-09-16E, elevation: 146 m

Current weather observation

The report was made 13 minutes ago, at 18:30 UTC
Wind 3 kt from the Southeast
Temperature 13°C
Humidity 62%
Pressure 1020 hPa
Visibility 10 km or more
no clouds below 1500 m and no cumulonimbus

METAR: LFRG 261830Z AUTO 14003KT CAVOK 13/06 Q1020 NOSIG

Time: 20:43 (18:43 UTC)

Forecast

The report was made 4 hours and 43 minutes ago, at 14:00 UTC
Forecast valid from 26 at 15 UTC to 26 at 24 UTC
Wind 10 kt from the East
Visibility 10 km or more
no clouds below 1500 m and no cumulonimbus

TAF: LFRG 261400Z 2615/2624 10010KT CAVOK

Weather observations and forecasts of more than 4000 airports (METAR and TAF reports).

The available stations are represented by yellow and red dots on the map.

Hover mouse over dot to see the name of the station.

Then click to see weather observations and forecasts.

To change the map : click on the green buttons with a black cross to zoom in, on the green button with a dash to zoom out, or on the green arrows for adjacent maps.


METAR-TAF: